Time;durP1;ratioP1;P1;durP2;ratioP2;P2;SDS_P1;SDS_P2;PMS_P1;PMS_P2;Temp;Humidity;BMP_temperature;BMP_pressure;BME280_temperature;BME280_humidity;BME280_pressure;Samples;Min_cycle;Max_cycle;Signal;HPM_P1;HPM_P2
2023/06/18 00:01:33;;;;;;;14.15;8.82;;;;;;;21.74;65.10;100661.66;7366629;19;20367;-63
2023/06/18 00:04:00;;;;;;;14.45;9.10;;;;;;;21.72;64.92;100669.94;7361729;19;21307;-62
2023/06/18 00:06:28;;;;;;;13.55;8.43;;;;;;;21.73;65.79;100671.59;7366234;19;20174;-62
2023/06/18 00:08:55;;;;;;;11.93;8.00;;;;;;;21.70;64.99;100666.69;7364524;19;20774;-68
2023/06/18 00:11:23;;;;;;;13.25;8.30;;;;;;;21.69;65.21;100672.25;7367379;19;20470;-63
2023/06/18 00:13:50;;;;;;;15.60;8.82;;;;;;;21.68;65.04;100668.78;7366564;19;20014;-62
2023/06/18 00:16:18;;;;;;;13.38;7.88;;;;;;;21.67;64.89;100672.50;7366771;19;20105;-62
2023/06/18 00:18:45;;;;;;;13.43;8.90;;;;;;;21.63;65.57;100673.19;7364658;19;20041;-61
2023/06/18 00:21:13;;;;;;;13.73;7.43;;;;;;;21.64;66.45;100678.31;7363556;19;20023;-63
2023/06/18 00:23:40;;;;;;;11.48;8.15;;;;;;;21.65;66.70;100676.44;7365934;19;20507;-62
2023/06/18 00:26:08;;;;;;;13.48;8.07;;;;;;;21.60;66.10;100709.28;7365858;19;20028;-63
2023/06/18 00:28:38;;;;;;;11.38;8.05;;;;;;;21.57;66.18;100700.88;7366034;19;20859;-62
2023/06/18 00:31:06;;;;;;;11.68;8.35;;;;;;;21.52;66.44;100696.22;7364894;19;20513;-62
2023/06/18 00:33:33;;;;;;;13.65;8.25;;;;;;;21.53;66.69;100689.81;7365116;19;20029;-63
2023/06/18 00:36:04;;;;;;;16.45;10.20;;;;;;;21.52;67.54;100676.66;7365462;19;21697;-63
2023/06/18 00:38:34;;;;;;;14.32;9.35;;;;;;;21.46;67.49;100677.56;7363633;19;20135;-62
2023/06/18 00:41:01;;;;;;;14.50;9.75;;;;;;;21.42;67.80;100665.66;7366048;19;20011;-63
2023/06/18 00:43:29;;;;;;;15.73;10.48;;;;;;;21.37;68.29;100657.50;7356944;19;20018;-63
2023/06/18 00:45:59;;;;;;;18.63;11.57;;;;;;;21.33;68.45;100659.84;7362833;19;20014;-63
2023/06/18 00:48:28;;;;;;;16.95;10.93;;;;;;;21.26;68.72;100637.69;7364039;19;20030;-63
2023/06/18 00:50:56;;;;;;;16.48;11.45;;;;;;;21.23;69.09;100627.44;7359723;19;20082;-63
2023/06/18 00:53:25;;;;;;;16.35;10.90;;;;;;;21.21;69.35;100632.19;7365504;19;20023;-63
2023/06/18 00:55:53;;;;;;;18.27;11.48;;;;;;;21.18;69.58;100629.97;7365136;19;20109;-63
2023/06/18 00:58:23;;;;;;;17.65;11.45;;;;;;;21.17;69.50;100631.84;7365743;19;20018;-63
2023/06/18 01:00:51;;;;;;;16.58;10.43;;;;;;;21.15;69.91;100636.59;7365282;19;20002;-62
2023/06/18 01:03:21;;;;;;;18.88;11.05;;;;;;;21.18;69.98;100636.13;7363258;19;20038;-63
2023/06/18 01:05:57;;;;;;;16.33;10.70;;;;;;;21.20;70.15;100643.94;7364816;19;20025;-63
2023/06/18 01:08:25;;;;;;;18.92;12.13;;;;;;;21.24;69.73;100647.78;7359251;19;20011;-63
2023/06/18 01:11:01;;;;;;;17.63;11.40;;;;;;;21.23;69.81;100630.91;7363514;19;20011;-62
2023/06/18 01:13:32;;;;;;;17.33;11.18;;;;;;;21.21;70.32;100630.34;7367652;19;20058;-63
2023/06/18 01:16:03;;;;;;;16.25;11.38;;;;;;;21.22;70.31;100625.81;7361717;19;20065;-62
2023/06/18 01:18:35;;;;;;;17.25;10.02;;;;;;;21.23;70.38;100614.06;7363388;19;20019;-62
2023/06/18 01:21:09;;;;;;;16.23;11.43;;;;;;;21.26;70.35;100611.72;7360962;19;20014;-62
2023/06/18 01:23:54;;;;;;;15.52;11.10;;;;;;;21.27;70.37;100610.69;7364199;19;20002;-62
2023/06/18 01:26:22;;;;;;;18.35;11.38;;;;;;;21.29;71.24;100608.59;7361685;19;20090;-62
2023/06/18 01:28:51;;;;;;;15.55;10.85;;;;;;;21.30;70.68;100598.69;7360840;19;20021;-62
2023/06/18 01:31:21;;;;;;;14.73;10.25;;;;;;;21.30;69.97;100588.81;7362173;19;20014;-61
2023/06/18 01:33:53;;;;;;;14.10;10.52;;;;;;;21.29;69.80;100587.16;7361892;19;20014;-63
2023/06/18 01:36:29;;;;;;;17.23;10.60;;;;;;;21.30;69.38;100582.63;7365497;19;20022;-62
2023/06/18 01:39:07;;;;;;;18.02;10.00;;;;;;;21.30;69.46;100578.09;7363422;19;20034;-63
2023/06/18 01:41:38;;;;;;;16.42;9.95;;;;;;;21.31;70.67;100576.25;7363495;19;20101;-63
2023/06/18 01:44:12;;;;;;;17.33;10.32;;;;;;;21.27;71.79;100577.75;7364260;19;20014;-63
2023/06/18 01:46:41;;;;;;;16.70;11.13;;;;;;;21.25;71.82;100582.50;7360392;19;20860;-61
2023/06/18 01:49:09;;;;;;;16.95;10.50;;;;;;;21.21;72.44;100575.97;7360327;19;20054;-61
2023/06/18 01:51:37;;;;;;;19.10;11.07;;;;;;;21.19;72.68;100588.75;7362179;19;20078;-62
2023/06/18 01:54:06;;;;;;;18.25;10.70;;;;;;;21.12;72.97;100588.03;7362177;19;20010;-62
2023/06/18 01:56:34;;;;;;;18.30;11.40;;;;;;;21.06;73.89;100586.25;7364884;19;20026;-62
2023/06/18 01:59:02;;;;;;;16.30;11.05;;;;;;;20.98;74.35;100570.53;7362534;19;20039;-62
2023/06/18 02:01:31;;;;;;;20.23;12.00;;;;;;;20.96;74.04;100561.91;7361371;19;20539;-62
2023/06/18 02:03:58;;;;;;;26.13;11.77;;;;;;;20.97;74.17;100569.72;7360738;19;20507;-62
2023/06/18 02:06:25;;;;;;;19.15;11.57;;;;;;;20.94;74.74;100572.81;7363056;19;21782;-63
2023/06/18 02:08:52;;;;;;;16.48;11.68;;;;;;;20.89;75.03;100575.38;7361428;19;20014;-62
2023/06/18 02:11:20;;;;;;;20.40;12.00;;;;;;;20.88;75.38;100581.75;7363820;19;21694;-63
2023/06/18 02:13:47;;;;;;;17.63;12.63;;;;;;;20.86;76.19;100582.00;7363198;19;20027;-62
2023/06/18 02:16:15;;;;;;;20.35;12.80;;;;;;;20.85;76.27;100571.50;7363420;19;20018;-62
2023/06/18 02:18:42;;;;;;;17.25;12.05;;;;;;;20.83;76.32;100565.56;7361623;19;20597;-63
2023/06/18 02:21:09;;;;;;;20.17;12.85;;;;;;;20.78;76.73;100558.22;7360943;19;20123;-62
2023/06/18 02:23:37;;;;;;;17.63;13.10;;;;;;;20.78;76.19;100552.88;7362904;19;21252;-62
2023/06/18 02:26:05;;;;;;;20.58;13.95;;;;;;;20.75;75.46;100547.16;7363312;19;20047;-63
2023/06/18 02:28:32;;;;;;;21.20;14.20;;;;;;;20.68;74.88;100541.91;7363836;19;20014;-62
2023/06/18 02:30:59;;;;;;;20.77;13.43;;;;;;;20.59;75.00;100553.13;7357220;19;20058;-63
2023/06/18 02:33:27;;;;;;;21.85;14.23;;;;;;;20.54;76.35;100553.81;7359646;19;20684;-62
2023/06/18 02:35:54;;;;;;;21.27;13.95;;;;;;;20.53;76.20;100549.50;7361753;19;20022;-62
2023/06/18 02:38:21;;;;;;;17.17;11.35;;;;;;;20.51;75.90;100550.78;7359517;19;20014;-62
2023/06/18 02:40:48;;;;;;;18.48;12.80;;;;;;;20.48;76.26;100549.34;7361360;19;20018;-62
2023/06/18 02:43:16;;;;;;;20.98;12.40;;;;;;;20.48;76.59;100546.69;7361146;19;20014;-62
2023/06/18 02:45:43;;;;;;;18.92;12.55;;;;;;;20.49;76.58;100557.16;7361461;19;20313;-62
2023/06/18 02:48:11;;;;;;;19.08;13.18;;;;;;;20.52;76.80;100560.44;7360450;19;20018;-62
2023/06/18 02:50:39;;;;;;;20.58;12.48;;;;;;;20.53;75.89;100562.06;7356994;19;20015;-63
2023/06/18 02:53:06;;;;;;;20.77;12.45;;;;;;;20.53;75.59;100568.22;7359999;19;20022;-63
2023/06/18 02:55:34;;;;;;;19.52;11.65;;;;;;;20.52;75.60;100555.09;7362620;19;20022;-62
2023/06/18 02:58:02;;;;;;;22.95;12.90;;;;;;;20.53;76.43;100562.06;7361276;19;20010;-62
2023/06/18 03:00:31;;;;;;;18.90;12.82;;;;;;;20.55;76.05;100565.31;7361946;19;20033;-61
2023/06/18 03:02:58;;;;;;;18.75;12.32;;;;;;;20.57;75.54;100557.91;7356833;19;20033;-62
2023/06/18 03:05:25;;;;;;;21.95;13.05;;;;;;;20.53;75.81;100559.38;7359503;19;20023;-62
2023/06/18 03:07:53;;;;;;;22.23;14.02;;;;;;;20.47;76.30;100559.22;7359341;19;20027;-62
2023/06/18 03:10:20;;;;;;;21.17;13.18;;;;;;;20.42;76.55;100544.91;7361109;19;20182;-62
2023/06/18 03:12:48;;;;;;;24.23;14.18;;;;;;;20.37;78.23;100515.34;7359958;19;20022;-63
2023/06/18 03:15:16;;;;;;;26.98;14.95;;;;;;;20.33;79.72;100485.59;7361038;19;20012;-62
2023/06/18 03:17:43;;;;;;;24.20;15.15;;;;;;;20.23;80.05;100479.94;7359871;19;20050;-63
2023/06/18 03:20:12;;;;;;;23.38;15.35;;;;;;;20.21;80.79;100508.75;7356832;19;21746;-62
2023/06/18 03:22:39;;;;;;;25.35;15.98;;;;;;;20.16;81.75;100535.34;7360317;19;20021;-62
2023/06/18 03:25:08;;;;;;;25.42;16.80;;;;;;;20.13;82.20;100545.63;7361598;19;20916;-62
2023/06/18 03:27:35;;;;;;;24.48;16.90;;;;;;;20.08;82.92;100543.63;7358525;19;20865;-63
2023/06/18 03:30:04;;;;;;;24.85;17.00;;;;;;;20.08;84.93;100544.44;7358338;19;20121;-63
2023/06/18 03:32:32;;;;;;;25.20;17.52;;;;;;;20.07;84.64;100532.13;7359285;19;20036;-62
2023/06/18 03:35:00;;;;;;;25.77;17.45;;;;;;;20.01;83.30;100522.31;7357466;19;20054;-62
2023/06/18 03:37:27;;;;;;;30.40;18.85;;;;;;;19.95;82.59;100517.06;7360682;19;20014;-62
2023/06/18 03:39:55;;;;;;;29.48;18.52;;;;;;;19.95;82.83;100514.38;7359908;19;20022;-62
2023/06/18 03:42:23;;;;;;;31.35;18.58;;;;;;;19.92;83.30;100514.81;7359610;19;20922;-62
2023/06/18 03:44:50;;;;;;;28.02;19.45;;;;;;;19.91;83.73;100530.03;7360753;19;20464;-62
2023/06/18 03:47:18;;;;;;;25.27;18.58;;;;;;;19.92;84.19;100536.19;7359119;19;20145;-62
2023/06/18 03:49:46;;;;;;;29.13;20.88;;;;;;;19.91;85.40;100543.38;7359079;19;20469;-62
2023/06/18 03:52:13;;;;;;;27.38;19.33;;;;;;;19.96;85.78;100537.41;7357547;19;20015;-63
2023/06/18 03:54:41;;;;;;;28.35;19.35;;;;;;;19.96;85.79;100535.50;7366622;19;20018;-61
2023/06/18 03:57:08;;;;;;;28.10;18.33;;;;;;;19.97;85.79;100521.13;7367894;19;20022;-61
2023/06/18 03:59:36;;;;;;;31.38;19.92;;;;;;;19.96;85.16;100527.50;7366451;19;20082;-62
2023/06/18 04:02:04;;;;;;;26.80;18.55;;;;;;;19.97;85.00;100522.97;7362814;19;20018;-61
2023/06/18 04:04:31;;;;;;;24.48;18.15;;;;;;;19.96;84.85;100518.69;7365567;19;20007;-63
2023/06/18 04:06:58;;;;;;;28.02;19.23;;;;;;;19.96;84.53;100513.34;7366540;19;20046;-63
2023/06/18 04:09:25;;;;;;;26.83;19.02;;;;;;;19.98;84.16;100513.94;7365625;19;20019;-63
2023/06/18 04:11:54;;;;;;;26.60;18.85;;;;;;;20.02;84.38;100517.78;7364340;19;20022;-63
2023/06/18 04:14:21;;;;;;;26.48;18.38;;;;;;;20.00;84.49;100510.03;7365900;19;20018;-61
2023/06/18 04:16:48;;;;;;;25.65;17.98;;;;;;;20.02;85.19;100507.91;7365535;19;20785;-62
2023/06/18 04:19:16;;;;;;;26.17;17.98;;;;;;;20.04;85.15;100507.72;7361884;19;20029;-61
2023/06/18 04:21:43;;;;;;;26.90;18.08;;;;;;;20.01;85.59;100498.25;7364729;19;20051;-61
2023/06/18 04:24:10;;;;;;;25.83;19.23;;;;;;;20.04;85.60;100497.84;7362804;19;20030;-62
2023/06/18 04:26:38;;;;;;;28.10;19.85;;;;;;;20.09;86.38;100494.50;7366705;19;20021;-63
2023/06/18 04:29:05;;;;;;;24.02;17.92;;;;;;;20.12;86.28;100490.53;7365606;19;21712;-62
2023/06/18 04:31:32;;;;;;;26.48;18.50;;;;;;;20.12;86.44;100485.19;7365678;19;20126;-62
2023/06/18 04:34:00;;;;;;;29.08;18.67;;;;;;;20.16;86.32;100495.25;7364533;19;21021;-62
2023/06/18 04:36:27;;;;;;;28.95;17.85;;;;;;;20.21;86.21;100495.41;7366701;19;20028;-62
2023/06/18 04:38:54;;;;;;;24.80;18.80;;;;;;;20.26;86.23;100505.41;7365799;19;20372;-62
2023/06/18 04:41:22;;;;;;;27.98;19.40;;;;;;;20.31;85.65;100494.88;7361414;19;20626;-63
2023/06/18 04:43:49;;;;;;;23.08;17.15;;;;;;;20.34;85.58;100507.78;7363011;19;20032;-62
2023/06/18 04:46:16;;;;;;;25.17;17.92;;;;;;;20.37;85.83;100510.81;7366103;19;20027;-63
2023/06/18 04:48:43;;;;;;;26.20;18.08;;;;;;;20.41;85.64;100514.72;7365801;19;20150;-63
2023/06/18 04:51:10;;;;;;;24.42;17.02;;;;;;;20.46;85.77;100506.00;7362902;19;20018;-62
2023/06/18 04:53:37;;;;;;;23.65;17.20;;;;;;;20.52;86.26;100504.28;7364766;19;20026;-62
2023/06/18 04:56:05;;;;;;;24.92;17.45;;;;;;;20.58;86.00;100506.03;7364815;19;20510;-62
2023/06/18 04:58:36;;;;;;;26.00;17.27;;;;;;;20.59;85.37;100505.81;7363330;19;20039;-62
2023/06/18 05:01:03;;;;;;;24.00;17.80;;;;;;;20.63;85.12;100503.50;7362408;19;20015;-62
2023/06/18 05:03:30;;;;;;;25.55;18.08;;;;;;;20.62;85.00;100508.03;7359926;19;20044;-63
2023/06/18 05:05:58;;;;;;;27.75;19.27;;;;;;;20.61;85.51;100509.09;7361087;19;20352;-64
2023/06/18 05:08:25;;;;;;;24.95;18.85;;;;;;;20.66;84.95;100503.06;7365150;19;20035;-64
2023/06/18 05:10:52;;;;;;;26.08;18.52;;;;;;;20.63;84.76;100512.34;7362037;19;20014;-62
2023/06/18 05:13:20;;;;;;;27.98;17.98;;;;;;;20.64;84.65;100522.00;7362471;19;20383;-62
2023/06/18 05:15:47;;;;;;;25.25;18.50;;;;;;;20.61;84.21;100527.81;7363710;19;20086;-63
2023/06/18 05:18:15;;;;;;;24.42;18.63;;;;;;;20.57;84.85;100521.25;7363214;19;20025;-62
2023/06/18 05:20:42;;;;;;;27.95;20.20;;;;;;;20.58;85.58;100530.09;7363701;19;20462;-62
2023/06/18 05:23:09;;;;;;;29.75;19.45;;;;;;;20.56;85.25;100516.97;7362218;19;20047;-62
2023/06/18 05:25:37;;;;;;;26.60;19.50;;;;;;;20.48;85.14;100518.09;7362584;19;20010;-62
2023/06/18 05:28:05;;;;;;;28.83;19.83;;;;;;;20.48;85.60;100525.28;7363210;19;21666;-63
2023/06/18 05:30:32;;;;;;;27.45;19.15;;;;;;;20.46;85.24;100524.72;7359936;19;20015;-63
2023/06/18 05:32:59;;;;;;;25.23;19.00;;;;;;;20.42;85.50;100524.34;7362619;19;20010;-62
2023/06/18 05:35:27;;;;;;;26.83;19.08;;;;;;;20.44;84.88;100532.97;7365575;19;20015;-62
2023/06/18 05:37:54;;;;;;;28.45;19.30;;;;;;;20.44;85.16;100532.97;7363907;19;20384;-61
2023/06/18 05:40:21;;;;;;;25.15;17.92;;;;;;;20.44;85.53;100532.97;7362269;19;20018;-63
2023/06/18 05:42:49;;;;;;;25.98;18.25;;;;;;;20.43;85.26;100531.31;7361589;19;20081;-63
2023/06/18 05:45:17;;;;;;;26.00;18.52;;;;;;;20.48;85.31;100538.66;7361543;19;20547;-62
2023/06/18 05:47:44;;;;;;;28.35;18.20;;;;;;;20.49;84.73;100545.66;7363074;19;20014;-63
2023/06/18 05:50:11;;;;;;;23.17;16.92;;;;;;;20.45;84.68;100544.47;7357931;19;20542;-62
2023/06/18 05:52:39;;;;;;;22.60;16.08;;;;;;;20.44;84.73;100538.31;7362105;19;20025;-63
2023/06/18 05:55:08;;;;;;;25.65;16.90;;;;;;;20.46;84.94;100535.41;7361365;19;20019;-63
2023/06/18 05:57:36;;;;;;;25.63;16.85;;;;;;;20.48;85.09;100544.00;7363138;19;20014;-63
2023/06/18 06:00:04;;;;;;;24.48;16.20;;;;;;;20.52;85.66;100531.03;7363037;19;20014;-63
2023/06/18 06:02:31;;;;;;;23.48;16.17;;;;;;;20.56;85.05;100524.19;7359548;19;20086;-63
2023/06/18 06:04:58;;;;;;;26.92;17.40;;;;;;;20.62;85.26;100521.41;7361945;19;20018;-63
2023/06/18 06:07:26;;;;;;;22.33;16.80;;;;;;;20.70;85.08;100522.97;7361167;19;20494;-63
2023/06/18 06:09:53;;;;;;;25.08;17.25;;;;;;;20.78;85.61;100531.47;7361006;19;20612;-63
2023/06/18 06:12:21;;;;;;;23.02;17.10;;;;;;;20.88;85.59;100537.09;7363224;19;20026;-63
2023/06/18 06:14:49;;;;;;;22.90;16.10;;;;;;;20.99;84.99;100532.00;7362105;19;20041;-63
2023/06/18 06:17:16;;;;;;;22.00;15.80;;;;;;;21.06;84.66;100535.41;7359430;19;20024;-63
2023/06/18 06:19:43;;;;;;;21.83;15.98;;;;;;;21.10;85.05;100533.91;7361891;19;20018;-62
2023/06/18 06:22:11;;;;;;;25.05;16.17;;;;;;;21.14;84.98;100545.81;7363389;19;20351;-63
2023/06/18 06:24:38;;;;;;;23.38;15.85;;;;;;;21.20;85.09;100534.19;7360104;19;21071;-62
2023/06/18 06:27:06;;;;;;;23.02;16.15;;;;;;;21.27;84.48;100538.41;7358971;19;20014;-62
2023/06/18 06:29:33;;;;;;;23.70;16.00;;;;;;;21.35;84.66;100553.31;7359315;19;20645;-63
2023/06/18 06:32:00;;;;;;;22.60;15.07;;;;;;;21.50;83.86;100558.22;7359054;19;20014;-62
2023/06/18 06:34:29;;;;;;;26.98;16.95;;;;;;;21.66;83.26;100544.16;7358536;19;20022;-65
2023/06/18 06:36:56;;;;;;;22.63;16.58;;;;;;;21.70;83.01;100542.63;7360178;19;20022;-63
2023/06/18 06:39:24;;;;;;;22.35;16.08;;;;;;;21.75;82.83;100554.28;7359712;19;20018;-63
2023/06/18 06:41:51;;;;;;;19.42;14.60;;;;;;;21.73;82.60;100540.31;7361573;19;20011;-63
2023/06/18 06:44:19;;;;;;;23.30;14.75;;;;;;;21.75;82.50;100548.94;7361200;19;20801;-62
2023/06/18 06:46:46;;;;;;;23.77;14.75;;;;;;;21.73;82.52;100537.66;7360035;19;20025;-62
2023/06/18 06:49:14;;;;;;;21.10;15.10;;;;;;;21.74;82.56;100536.56;7358693;19;20029;-63
2023/06/18 06:51:41;;;;;;;24.17;15.98;;;;;;;21.77;83.16;100537.97;7359457;19;20038;-62
2023/06/18 06:54:09;;;;;;;21.08;14.88;;;;;;;21.80;82.76;100540.19;7360322;19;20018;-63
2023/06/18 06:56:36;;;;;;;20.73;14.63;;;;;;;21.83;82.66;100536.25;7358077;19;20114;-63
2023/06/18 06:59:05;;;;;;;18.95;13.82;;;;;;;21.88;82.07;100531.00;7358082;19;20027;-62
2023/06/18 07:01:32;;;;;;;18.42;13.30;;;;;;;21.88;82.40;100528.31;7359163;19;20015;-63
2023/06/18 07:04:00;;;;;;;19.77;14.20;;;;;;;21.96;81.30;100522.63;7358852;19;20014;-63
2023/06/18 07:06:27;;;;;;;19.30;12.93;;;;;;;21.98;81.52;100520.53;7359312;19;20039;-63
2023/06/18 07:08:57;;;;;;;18.23;12.38;;;;;;;22.02;82.04;100524.38;7360331;19;20615;-63
2023/06/18 07:11:25;;;;;;;16.13;11.88;;;;;;;22.04;82.08;100523.09;7360688;19;20025;-63
2023/06/18 07:13:53;;;;;;;19.80;11.52;;;;;;;22.10;81.30;100527.50;7359413;19;20018;-63
2023/06/18 07:16:20;;;;;;;15.30;10.85;;;;;;;22.19;81.13;100533.31;7360940;19;20759;-64
2023/06/18 07:18:48;;;;;;;17.58;11.07;;;;;;;22.26;81.09;100535.84;7358020;19;20031;-63
2023/06/18 07:21:16;;;;;;;15.55;11.65;;;;;;;22.33;80.59;100537.38;7360315;19;20043;-63
2023/06/18 07:23:45;;;;;;;14.75;10.90;;;;;;;22.40;81.01;100532.66;7362197;19;20018;-61
2023/06/18 07:26:12;;;;;;;15.68;11.32;;;;;;;22.46;80.17;100526.34;7361179;19;20760;-63
2023/06/18 07:28:40;;;;;;;14.68;10.73;;;;;;;22.54;80.26;100530.53;7366991;19;20026;-63
2023/06/18 07:31:07;;;;;;;13.77;10.63;;;;;;;22.60;79.78;100534.97;7367292;19;20788;-63
2023/06/18 07:33:34;;;;;;;13.30;10.65;;;;;;;22.66;79.29;100531.28;7366488;19;20123;-62
2023/06/18 07:36:02;;;;;;;15.10;10.57;;;;;;;22.73;79.02;100528.50;7368247;19;20019;-62
2023/06/18 07:38:29;;;;;;;16.08;10.50;;;;;;;22.87;79.03;100533.34;7369611;19;20101;-63
2023/06/18 07:40:57;;;;;;;15.70;10.23;;;;;;;23.18;77.90;100523.94;7369279;19;21192;-62
2023/06/18 07:43:24;;;;;;;11.57;9.30;;;;;;;23.72;75.89;100525.09;7367731;19;20034;-63
2023/06/18 07:45:51;;;;;;;12.05;9.15;;;;;;;24.65;71.57;100528.72;7365042;19;20343;-63
2023/06/18 07:48:19;;;;;;;12.80;9.27;;;;;;;25.22;67.99;100526.34;7365977;19;20040;-63
2023/06/18 07:50:46;;;;;;;14.05;8.98;;;;;;;25.24;68.10;100526.09;7363706;19;20010;-63
2023/06/18 07:53:14;;;;;;;12.25;8.85;;;;;;;25.10;68.27;100517.63;7368545;19;20026;-63
2023/06/18 07:55:41;;;;;;;11.05;8.77;;;;;;;25.09;68.13;100510.63;7366171;19;20027;-63
2023/06/18 07:58:11;;;;;;;13.48;8.25;;;;;;;25.01;68.50;100513.78;7364475;19;20621;-62
2023/06/18 08:00:39;;;;;;;13.77;9.15;;;;;;;24.93;68.99;100515.06;7366982;19;20019;-63
2023/06/18 08:03:06;;;;;;;11.52;8.20;;;;;;;24.90;69.34;100518.25;7365346;19;20017;-63
2023/06/18 08:05:33;;;;;;;16.45;10.05;;;;;;;24.78;69.31;100516.75;7363994;19;20014;-63
2023/06/18 08:08:01;;;;;;;14.90;9.90;;;;;;;24.69;69.50;100509.13;7368069;19;20018;-63
2023/06/18 08:10:28;;;;;;;13.18;9.27;;;;;;;24.59;70.35;100514.41;7364650;19;20093;-63
2023/06/18 08:12:56;;;;;;;14.95;9.45;;;;;;;24.54;70.40;100518.91;7367562;19;20014;-63
2023/06/18 08:15:23;;;;;;;12.25;10.10;;;;;;;24.46;71.07;100511.28;7367671;19;20015;-63
2023/06/18 08:17:52;;;;;;;15.02;11.18;;;;;;;24.49;70.97;100513.47;7363174;19;20082;-62
2023/06/18 08:20:20;;;;;;;13.80;9.82;;;;;;;24.59;71.44;100503.63;7368541;19;20026;-62
2023/06/18 08:22:47;;;;;;;13.02;9.70;;;;;;;24.75;70.37;100503.78;7366986;19;20020;-62
2023/06/18 08:25:15;;;;;;;13.60;9.77;;;;;;;24.66;70.47;100498.88;7367677;19;20024;-63
2023/06/18 08:27:42;;;;;;;13.82;10.30;;;;;;;24.64;70.55;100489.41;7363899;19;20480;-63
2023/06/18 08:30:10;;;;;;;15.38;9.82;;;;;;;24.72;70.49;100491.66;7362637;19;20018;-62
2023/06/18 08:32:38;;;;;;;16.33;11.35;;;;;;;25.00;69.72;100477.94;7361864;19;21401;-62
2023/06/18 08:35:06;;;;;;;14.80;10.40;;;;;;;25.32;68.88;100480.63;7362542;19;20018;-63
2023/06/18 08:37:35;;;;;;;14.05;11.00;;;;;;;25.58;68.22;100478.13;7365934;19;20841;-63
2023/06/18 08:40:03;;;;;;;14.18;11.20;;;;;;;25.50;67.81;100465.91;7360296;19;20376;-62
2023/06/18 08:42:32;;;;;;;15.35;11.15;;;;;;;25.38;69.11;100459.94;7367085;19;20047;-63
2023/06/18 08:45:00;;;;;;;14.07;10.55;;;;;;;25.20;68.59;100455.75;7364293;19;20021;-63
2023/06/18 08:47:29;;;;;;;13.95;10.45;;;;;;;25.13;68.88;100449.78;7364751;19;20017;-64
2023/06/18 08:49:59;;;;;;;13.95;10.60;;;;;;;24.97;69.61;100450.72;7360092;19;20640;-63
2023/06/18 08:52:29;;;;;;;14.27;9.90;;;;;;;24.89;69.51;100449.31;7362369;19;20028;-63
2023/06/18 08:55:02;;;;;;;15.93;10.75;;;;;;;24.90;70.62;100444.72;7362250;19;20051;-62
2023/06/18 08:57:45;;;;;;;15.55;10.77;;;;;;;24.94;70.55;100452.03;7364762;19;20458;-62
2023/06/18 09:00:13;;;;;;;14.45;11.05;;;;;;;24.91;70.77;100455.25;7365109;19;20021;-63
2023/06/18 09:02:41;;;;;;;14.23;10.50;;;;;;;24.87;70.95;100440.69;7360200;19;20014;-63
2023/06/18 09:05:09;;;;;;;15.90;11.63;;;;;;;24.82;71.33;100446.00;7364033;19;20101;-62
2023/06/18 09:07:38;;;;;;;14.13;10.95;;;;;;;24.79;71.46;100448.41;7362379;19;20018;-62
2023/06/18 09:10:06;;;;;;;13.38;10.82;;;;;;;24.72;72.35;100451.28;7365049;19;20025;-64
2023/06/18 09:12:34;;;;;;;15.35;11.55;;;;;;;24.65;72.16;100445.28;7364462;19;20018;-63
2023/06/18 09:15:02;;;;;;;17.65;12.70;;;;;;;24.63;72.21;100442.88;7368556;19;20014;-62
2023/06/18 09:17:29;;;;;;;15.23;11.70;;;;;;;24.65;72.94;100439.91;7364710;19;20716;-63
2023/06/18 09:19:58;;;;;;;18.00;11.45;;;;;;;24.70;72.91;100437.25;7318896;19;20011;-62
2023/06/18 09:22:25;;;;;;;27.60;10.80;;;;;;;24.73;72.59;100439.47;7356950;19;20027;-63
2023/06/18 09:24:58;;;;;;;16.58;9.13;;;;;;;24.77;72.31;100431.69;7357729;19;20014;-62
2023/06/18 09:27:33;;;;;;;20.02;10.52;;;;;;;24.81;72.85;100435.47;7360248;19;20017;-62
2023/06/18 09:30:01;;;;;;;12.23;8.95;;;;;;;24.84;72.52;100433.06;7358585;19;20010;-63
2023/06/18 09:32:28;;;;;;;15.07;9.23;;;;;;;24.83;71.83;100425.28;7352761;19;20047;-62
2023/06/18 09:34:55;;;;;;;16.45;9.35;;;;;;;24.86;72.05;100416.69;7356447;19;20014;-63
2023/06/18 09:37:26;;;;;;;17.08;9.95;;;;;;;24.95;71.37;100417.84;7355674;19;20043;-64
2023/06/18 09:39:55;;;;;;;12.38;9.15;;;;;;;25.01;71.50;100408.75;7355476;19;20014;-63
2023/06/18 09:42:29;;;;;;;14.52;9.98;;;;;;;25.12;70.62;100415.84;7352170;19;20013;-62
2023/06/18 09:44:57;;;;;;;9.85;8.77;;;;;;;25.14;69.92;100427.97;7357872;19;20037;-62
2023/06/18 09:47:25;;;;;;;13.48;9.40;;;;;;;25.26;70.66;100424.28;7357680;19;20498;-62
2023/06/18 09:49:53;;;;;;;22.73;11.00;;;;;;;25.34;69.58;100423.81;7354573;19;20604;-62
2023/06/18 09:52:20;;;;;;;26.20;12.15;;;;;;;25.39;68.64;100430.03;7358424;19;20483;-62
2023/06/18 09:54:47;;;;;;;12.00;9.43;;;;;;;25.46;68.51;100429.78;7359180;19;20889;-62
2023/06/18 09:57:16;;;;;;;12.25;8.50;;;;;;;25.52;68.68;100426.88;7362239;19;20022;-63
2023/06/18 09:59:43;;;;;;;23.42;9.80;;;;;;;25.51;68.70;100425.25;7358080;19;21238;-62
2023/06/18 10:02:22;;;;;;;17.13;10.10;;;;;;;25.58;68.01;100421.53;7359512;19;21793;-64
2023/06/18 10:04:50;;;;;;;25.20;8.73;;;;;;;25.63;68.07;100422.38;7360103;19;20045;-62
2023/06/18 10:07:19;;;;;;;30.67;11.70;;;;;;;25.71;68.34;100427.25;7358428;19;20458;-62
2023/06/18 10:09:48;;;;;;;14.48;9.20;;;;;;;25.76;67.96;100415.69;7360233;19;20098;-63
2023/06/18 10:12:17;;;;;;;12.50;10.00;;;;;;;25.77;67.35;100403.81;7359407;19;20012;-62
2023/06/18 10:14:46;;;;;;;12.65;9.07;;;;;;;25.82;67.88;100401.16;7357832;19;20019;-63
2023/06/18 10:17:23;;;;;;;17.40;10.05;;;;;;;25.83;67.96;100405.47;7361672;19;20063;-63
2023/06/18 10:20:03;;;;;;;21.02;9.65;;;;;;;25.89;68.33;100405.25;7360029;19;20542;-63
2023/06/18 10:22:42;;;;;;;11.75;9.77;;;;;;;25.92;67.96;100407.41;7362869;19;20023;-64
2023/06/18 10:25:10;;;;;;;10.82;8.93;;;;;;;25.98;67.42;100397.44;7358528;19;20011;-63
2023/06/18 10:27:39;;;;;;;12.15;8.85;;;;;;;26.09;67.34;100388.31;7361692;19;20018;-62
2023/06/18 10:30:07;;;;;;;14.65;9.40;;;;;;;26.17;67.14;100393.16;7360420;19;20018;-62
2023/06/18 10:32:36;;;;;;;15.23;9.30;;;;;;;26.17;66.73;100382.38;7358688;19;20018;-63
2023/06/18 10:35:09;;;;;;;17.35;12.15;;;;;;;26.14;66.70;100385.63;7360235;19;20019;-62
2023/06/18 10:37:39;;;;;;;14.27;10.98;;;;;;;26.18;66.09;100388.59;7359729;19;20025;-64
2023/06/18 10:40:08;;;;;;;13.38;9.73;;;;;;;26.25;66.36;100391.88;7358124;19;20018;-63
2023/06/18 10:42:35;;;;;;;12.00;9.73;;;;;;;26.30;65.90;100394.59;7361151;19;20022;-64
2023/06/18 10:45:12;;;;;;;15.30;10.07;;;;;;;26.30;65.60;100387.31;7359333;19;20029;-62
2023/06/18 10:47:40;;;;;;;10.75;7.80;;;;;;;26.27;64.57;100401.31;7360434;19;20617;-62
2023/06/18 10:50:10;;;;;;;9.73;8.40;;;;;;;26.31;64.92;100390.81;7356004;19;20022;-62
2023/06/18 10:52:41;;;;;;;16.70;11.55;;;;;;;26.36;65.19;100385.44;7361906;19;20019;-62
2023/06/18 10:55:11;;;;;;;11.32;7.78;;;;;;;26.35;62.80;100390.00;7361724;19;20022;-63
2023/06/18 10:57:43;;;;;;;7.30;5.88;;;;;;;26.32;61.97;100385.13;7362815;19;20015;-63
2023/06/18 11:00:21;;;;;;;18.17;8.50;;;;;;;26.35;62.00;100387.31;7361296;19;20523;-63
2023/06/18 11:02:57;;;;;;;11.43;7.38;;;;;;;26.41;63.01;100388.13;7362763;19;20021;-62
2023/06/18 11:05:34;;;;;;;8.88;6.30;;;;;;;26.51;62.31;100387.34;7367323;19;20018;-63
2023/06/18 11:08:08;;;;;;;9.18;6.28;;;;;;;26.57;61.94;100381.66;7368334;19;20022;-62
2023/06/18 11:10:38;;;;;;;14.52;8.05;;;;;;;26.65;60.61;100381.13;7365235;19;20027;-63
2023/06/18 11:13:07;;;;;;;7.15;5.65;;;;;;;26.77;60.48;100381.66;7365105;19;20044;-62
2023/06/18 11:15:36;;;;;;;10.77;6.63;;;;;;;26.80;60.16;100370.31;7367070;19;20126;-62
2023/06/18 11:18:03;;;;;;;8.60;6.30;;;;;;;26.81;60.22;100377.34;7366931;19;20551;-62